createdAt,value
2019-03-17T00:00:12.858Z,97831.51
2019-03-17T00:02:41.504Z,97828.78
2019-03-17T00:05:10.180Z,97825.30
2019-03-17T00:07:38.695Z,97819.56
2019-03-17T00:10:07.432Z,97815.59
2019-03-17T00:12:35.895Z,97818.56
2019-03-17T00:15:06.412Z,97822.80
2019-03-17T00:17:35.073Z,97818.56
2019-03-17T00:20:03.733Z,97814.41
2019-03-17T00:22:32.211Z,97811.16
2019-03-17T00:25:09.005Z,97812.50
2019-03-17T00:27:30.895Z,97805.84
2019-03-17T00:29:59.395Z,97803.67
2019-03-17T00:32:28.009Z,97803.58
2019-03-17T00:34:56.697Z,97793.23
2019-03-17T00:37:25.191Z,97783.42
2019-03-17T00:39:53.708Z,97791.54
2019-03-17T00:42:22.183Z,97791.58
2019-03-17T00:44:50.687Z,97794.16
2019-03-17T00:47:19.164Z,97778.32
2019-03-17T00:49:47.668Z,97774.80
2019-03-17T00:52:16.146Z,97781.91
2019-03-17T00:54:44.643Z,97779.13
2019-03-17T00:57:13.120Z,97773.55
2019-03-17T00:59:41.620Z,97767.13
2019-03-17T01:02:10.098Z,97777.30
2019-03-17T01:04:38.598Z,97773.59
2019-03-17T01:07:07.069Z,97763.26
2019-03-17T01:09:35.568Z,97771.67
2019-03-17T01:12:04.775Z,97756.56
2019-03-17T01:14:33.274Z,97764.62
2019-03-17T01:17:01.819Z,97753.50
2019-03-17T01:19:30.321Z,97759.13
2019-03-17T01:21:58.786Z,97752.31
2019-03-17T01:24:27.276Z,97754.87
2019-03-17T01:26:55.754Z,97753.84
2019-03-17T01:29:24.242Z,97752.25
2019-03-17T01:31:52.708Z,97750.78
2019-03-17T01:34:21.201Z,97757.59
2019-03-17T01:36:49.662Z,97756.88
2019-03-17T01:39:18.230Z,97757.56
2019-03-17T01:41:46.699Z,97751.00
2019-03-17T01:44:15.200Z,97753.59
2019-03-17T01:46:43.665Z,97745.55
2019-03-17T01:49:12.239Z,97749.70
2019-03-17T01:51:40.705Z,97753.95
2019-03-17T01:54:09.205Z,97746.81
2019-03-17T01:56:37.673Z,97740.33
2019-03-17T01:59:06.168Z,97738.97
2019-03-17T02:01:34.636Z,97735.05
2019-03-17T02:04:03.196Z,97729.72
2019-03-17T02:06:31.733Z,97732.83
2019-03-17T02:09:00.232Z,97726.06
2019-03-17T02:11:28.698Z,97723.30
2019-03-17T02:13:57.189Z,97715.34
2019-03-17T02:16:25.654Z,97709.04
2019-03-17T02:18:54.117Z,97712.92
2019-03-17T02:21:22.605Z,97697.25
2019-03-17T02:23:51.070Z,97699.92
2019-03-17T02:26:19.554Z,97694.42
2019-03-17T02:28:48.015Z,97689.02
2019-03-17T02:31:16.505Z,97693.47
2019-03-17T02:33:44.966Z,97681.17
2019-03-17T02:36:13.443Z,97678.23
2019-03-17T02:38:41.910Z,97682.36
2019-03-17T02:41:10.401Z,97673.23
2019-03-17T02:43:38.862Z,97671.12
2019-03-17T02:46:07.351Z,97676.43
2019-03-17T02:48:35.816Z,97676.86
2019-03-17T02:51:04.383Z,97665.28
2019-03-17T02:53:32.843Z,97666.20
2019-03-17T02:56:01.327Z,97663.75
2019-03-17T02:58:29.811Z,97665.19
2019-03-17T03:00:58.288Z,97662.53
2019-03-17T03:03:26.758Z,97667.68
2019-03-17T03:05:55.754Z,97674.76
2019-03-17T03:08:24.457Z,97668.70
2019-03-17T03:10:52.901Z,97658.04
2019-03-17T03:13:21.370Z,97659.27
2019-03-17T03:15:49.878Z,97655.64
2019-03-17T03:18:18.353Z,97649.27
2019-03-17T03:20:46.850Z,97652.47
2019-03-17T03:23:15.324Z,97648.92
2019-03-17T03:25:43.824Z,97642.05
2019-03-17T03:28:12.288Z,97651.09
2019-03-17T03:30:40.792Z,97648.70
2019-03-17T03:33:09.261Z,97652.53
2019-03-17T03:35:37.768Z,97650.84
2019-03-17T03:38:06.255Z,97640.22
2019-03-17T03:40:34.803Z,97633.59
2019-03-17T03:43:03.445Z,97631.05
2019-03-17T03:45:31.983Z,97626.55
2019-03-17T03:48:00.429Z,97617.82
2019-03-17T03:50:28.922Z,97626.34
2019-03-17T03:52:57.414Z,97609.70
2019-03-17T03:55:25.918Z,97605.66
2019-03-17T03:57:54.574Z,97612.16
2019-03-17T04:00:23.073Z,97620.55
2019-03-17T04:02:51.536Z,97611.08
2019-03-17T04:05:20.117Z,97609.63
2019-03-17T04:07:48.582Z,97598.99
2019-03-17T04:10:17.091Z,97590.30
2019-03-17T04:12:45.564Z,97593.22
2019-03-17T04:15:14.307Z,97591.63
2019-03-17T04:17:42.779Z,97589.32
2019-03-17T04:20:12.858Z,97588.88
2019-03-17T04:22:41.324Z,97586.14
2019-03-17T04:25:12.212Z,97576.33
2019-03-17T04:27:40.677Z,97579.91
2019-03-17T04:30:10.824Z,97577.16
2019-03-17T04:32:39.300Z,97574.35
2019-03-17T04:35:07.979Z,97572.84
2019-03-17T04:37:36.436Z,97566.47
2019-03-17T04:40:07.275Z,97563.53
2019-03-17T04:42:35.744Z,97560.39
2019-03-17T04:45:05.051Z,97559.97
2019-03-17T04:47:33.543Z,97541.34
2019-03-17T04:50:02.024Z,97548.70
2019-03-17T04:52:30.518Z,97548.13
2019-03-17T04:54:58.995Z,97532.94
2019-03-17T04:57:27.494Z,97532.45
2019-03-17T04:59:55.961Z,97530.87
2019-03-17T05:02:24.456Z,97520.73
2019-03-17T05:04:52.923Z,97524.57
2019-03-17T05:07:21.414Z,97516.27
2019-03-17T05:09:49.883Z,97517.78
2019-03-17T05:12:18.367Z,97517.14
2019-03-17T05:14:46.839Z,97506.78
2019-03-17T05:17:15.327Z,97502.73
2019-03-17T05:19:43.795Z,97501.15
2019-03-17T05:22:12.291Z,97499.56
2019-03-17T05:24:40.758Z,97500.03
2019-03-17T05:27:09.250Z,97496.18
2019-03-17T05:29:37.715Z,97493.80
2019-03-17T05:32:06.201Z,97492.91
2019-03-17T05:34:34.659Z,97494.50
2019-03-17T05:37:06.519Z,97489.52
2019-03-17T05:39:33.334Z,97489.52
2019-03-17T05:42:01.819Z,97487.99
2019-03-17T05:44:30.282Z,97481.33
2019-03-17T05:46:58.773Z,97478.89
2019-03-17T05:49:27.243Z,97475.39
2019-03-17T05:51:55.733Z,97469.31
2019-03-17T05:54:24.192Z,97474.06
2019-03-17T05:56:52.690Z,97467.25
2019-03-17T05:59:21.153Z,97470.13
2019-03-17T06:01:49.642Z,97462.00
2019-03-17T06:04:18.671Z,97455.02
2019-03-17T06:06:47.160Z,97449.64
2019-03-17T06:09:15.614Z,97457.86
2019-03-17T06:11:44.100Z,97456.98
2019-03-17T06:14:12.571Z,97454.60
2019-03-17T06:16:41.056Z,97452.80
2019-03-17T06:19:09.520Z,97442.95
2019-03-17T06:21:38.005Z,97441.98
2019-03-17T06:24:06.473Z,97433.66
2019-03-17T06:26:34.956Z,97442.95
2019-03-17T06:29:03.416Z,97456.09
2019-03-17T06:31:31.906Z,97444.42
2019-03-17T06:34:00.368Z,97433.98
2019-03-17T06:36:28.866Z,97437.72
2019-03-17T06:38:57.327Z,97424.91
2019-03-17T06:41:25.812Z,97430.00
2019-03-17T06:43:54.274Z,97431.30
2019-03-17T06:46:22.754Z,97428.34
2019-03-17T06:48:51.536Z,97415.03
2019-03-17T06:51:20.025Z,97423.67
2019-03-17T06:53:56.388Z,97407.86
2019-03-17T06:56:18.698Z,97407.68
2019-03-17T06:58:47.155Z,97412.80
2019-03-17T07:01:15.633Z,97420.86
2019-03-17T07:03:44.089Z,97413.48
2019-03-17T07:06:12.573Z,97425.89
2019-03-17T07:08:41.037Z,97419.25
2019-03-17T07:11:11.046Z,97428.09
2019-03-17T07:13:39.739Z,97432.75
2019-03-17T07:16:08.197Z,97436.62
2019-03-17T07:18:36.700Z,97434.70
2019-03-17T07:21:05.158Z,97418.39
2019-03-17T07:23:34.413Z,97429.49
2019-03-17T07:26:03.044Z,97421.25
2019-03-17T07:28:31.533Z,97428.19
2019-03-17T07:31:00.002Z,97415.74
2019-03-17T07:33:28.479Z,97420.60
2019-03-17T07:35:56.947Z,97421.86
2019-03-17T07:38:25.426Z,97407.07
2019-03-17T07:40:53.896Z,97414.83
2019-03-17T07:43:22.421Z,97416.75
2019-03-17T07:45:50.886Z,97404.84
2019-03-17T07:48:19.385Z,97409.37
2019-03-17T07:50:47.849Z,97415.54
2019-03-17T07:53:16.469Z,97406.97
2019-03-17T07:55:46.057Z,97418.97
2019-03-17T07:58:14.578Z,97415.73
2019-03-17T08:00:43.444Z,97412.09
2019-03-17T08:03:15.993Z,97402.14
2019-03-17T08:05:44.484Z,97392.52
2019-03-17T08:08:14.006Z,97401.31
2019-03-17T08:10:42.848Z,97405.23
2019-03-17T08:13:11.354Z,97395.67
2019-03-17T08:15:39.825Z,97411.80
2019-03-17T08:18:09.993Z,97405.00
2019-03-17T08:20:38.690Z,97409.91
2019-03-17T08:23:07.175Z,97406.30
2019-03-17T08:25:35.702Z,97415.52
2019-03-17T08:28:04.229Z,97414.05
2019-03-17T08:30:32.925Z,97422.02
2019-03-17T08:33:01.430Z,97415.98
2019-03-17T08:35:29.905Z,97407.60
2019-03-17T08:37:58.422Z,97413.67
2019-03-17T08:40:26.931Z,97417.18
2019-03-17T08:43:00.990Z,97413.83
2019-03-17T08:45:29.548Z,97403.30
2019-03-17T08:47:58.775Z,97407.52
2019-03-17T08:50:27.358Z,97409.92
2019-03-17T08:52:55.858Z,97411.59
2019-03-17T08:55:24.337Z,97414.50
2019-03-17T08:57:52.830Z,97419.81
2019-03-17T09:00:21.930Z,97415.38
2019-03-17T09:02:50.424Z,97425.11
2019-03-17T09:05:18.894Z,97413.36
2019-03-17T09:07:47.376Z,97421.27
2019-03-17T09:10:16.287Z,97415.77
2019-03-17T09:12:44.839Z,97419.63
2019-03-17T09:15:13.372Z,97420.04
2019-03-17T09:17:41.872Z,97424.11
2019-03-17T09:20:12.377Z,97438.34
2019-03-17T09:22:40.928Z,97431.64
2019-03-17T09:25:10.833Z,97428.66
2019-03-17T09:27:39.405Z,97425.62
2019-03-17T09:30:13.270Z,97435.81
2019-03-17T09:32:41.783Z,97419.27
2019-03-17T09:35:10.537Z,97418.18
2019-03-17T09:37:39.011Z,97429.58
2019-03-17T09:40:12.995Z,97418.04
2019-03-17T09:42:41.485Z,97415.20
2019-03-17T09:45:11.795Z,97421.54
2019-03-17T09:47:41.287Z,97427.89
2019-03-17T09:50:12.538Z,97426.08
2019-03-17T09:52:41.026Z,97426.55
2019-03-17T09:55:10.536Z,97427.30
2019-03-17T09:57:39.028Z,97438.83
2019-03-17T10:00:14.870Z,97433.53
2019-03-17T10:02:43.436Z,97433.57
2019-03-17T10:05:12.443Z,97430.03
2019-03-17T10:07:40.934Z,97429.81
2019-03-17T10:10:20.442Z,97422.08
2019-03-17T10:12:48.926Z,97420.89
2019-03-17T10:15:19.502Z,97430.11
2019-03-17T10:17:47.993Z,97421.70
2019-03-17T10:20:20.619Z,97416.71
2019-03-17T10:22:49.107Z,97414.89
2019-03-17T10:25:17.649Z,97407.60
2019-03-17T10:27:46.214Z,97417.62
2019-03-17T10:30:18.833Z,97403.80
2019-03-17T10:32:47.300Z,97411.06
2019-03-17T10:35:15.843Z,97397.34
2019-03-17T10:37:44.302Z,97405.20
2019-03-17T10:40:17.636Z,97406.55
2019-03-17T10:42:46.104Z,97404.75
2019-03-17T10:45:15.343Z,97406.26
2019-03-17T10:47:43.807Z,97403.34
2019-03-17T10:50:17.508Z,97398.05
2019-03-17T10:52:45.978Z,97389.33
2019-03-17T10:55:14.638Z,97403.55
2019-03-17T10:57:43.098Z,97398.32
2019-03-17T11:00:14.748Z,97395.88
2019-03-17T11:02:43.206Z,97387.03
2019-03-17T11:05:11.875Z,97380.98
2019-03-17T11:07:40.345Z,97375.70
2019-03-17T11:10:12.799Z,97379.01
2019-03-17T11:12:41.712Z,97369.77
2019-03-17T11:15:20.655Z,97370.35
2019-03-17T11:17:49.189Z,97382.52
2019-03-17T11:20:17.678Z,97386.92
2019-03-17T11:22:46.312Z,97401.38
2019-03-17T11:25:15.846Z,97383.62
2019-03-17T11:27:44.383Z,97391.96
2019-03-17T11:30:14.412Z,97384.78
2019-03-17T11:32:42.875Z,97391.45
2019-03-17T11:35:11.502Z,97380.36
2019-03-17T11:37:40.044Z,97382.48
2019-03-17T11:40:11.591Z,97388.11
2019-03-17T11:42:40.074Z,97367.94
2019-03-17T11:45:11.553Z,97373.53
2019-03-17T11:47:40.098Z,97361.75
2019-03-17T11:50:11.726Z,97374.86
2019-03-17T11:52:40.260Z,97349.34
2019-03-17T11:55:10.099Z,97348.13
2019-03-17T11:57:38.643Z,97353.00
2019-03-17T12:00:21.044Z,97343.77
2019-03-17T12:02:49.516Z,97339.70
2019-03-17T12:05:20.828Z,97345.89
2019-03-17T12:07:49.300Z,97338.77
2019-03-17T12:10:19.886Z,97327.20
2019-03-17T12:12:48.428Z,97334.78
2019-03-17T12:15:24.557Z,97333.02
2019-03-17T12:17:53.030Z,97329.97
2019-03-17T12:20:21.587Z,97331.80
2019-03-17T12:22:50.060Z,97336.60
2019-03-17T12:25:19.283Z,97342.56
2019-03-17T12:27:47.823Z,97352.86
2019-03-17T12:30:24.382Z,97369.41
2019-03-17T12:32:53.883Z,97356.98
2019-03-17T12:35:23.009Z,97357.84
2019-03-17T12:37:51.615Z,97347.67
2019-03-17T12:40:20.366Z,97353.73
2019-03-17T12:42:48.845Z,97352.14
2019-03-17T12:45:17.559Z,97351.77
2019-03-17T12:47:46.102Z,97347.63
2019-03-17T12:50:21.556Z,97346.42
2019-03-17T12:52:50.028Z,97346.20
2019-03-17T12:55:18.521Z,97348.85
2019-03-17T12:57:47.062Z,97344.31
2019-03-17T13:00:17.745Z,97344.59
2019-03-17T13:02:46.202Z,97348.81
2019-03-17T13:05:16.189Z,97332.70
2019-03-17T13:07:44.725Z,97332.17
2019-03-17T13:10:21.155Z,97332.94
2019-03-17T13:12:49.699Z,97331.72
2019-03-17T13:15:18.185Z,97329.69
2019-03-17T13:17:46.818Z,97323.04
2019-03-17T13:20:16.547Z,97318.95
2019-03-17T13:22:45.018Z,97309.02
2019-03-17T13:25:13.843Z,97317.66
2019-03-17T13:27:42.323Z,97311.66
2019-03-17T13:30:13.053Z,97313.50
2019-03-17T13:32:41.521Z,97312.25
2019-03-17T13:35:10.655Z,97315.80
2019-03-17T13:37:39.123Z,97321.83
2019-03-17T13:40:27.645Z,97310.87
2019-03-17T13:42:45.338Z,97313.70
2019-03-17T13:45:14.285Z,97309.83
2019-03-17T13:47:42.879Z,97304.44
2019-03-17T13:50:21.592Z,97303.69
2019-03-17T13:52:50.069Z,97307.56
2019-03-17T13:55:18.646Z,97312.13
2019-03-17T13:58:01.317Z,97319.27
2019-03-17T14:00:29.817Z,97317.99
2019-03-17T14:02:58.272Z,97314.96
2019-03-17T14:05:26.755Z,97321.30
2019-03-17T14:07:55.293Z,97313.98
2019-03-17T14:10:23.778Z,97310.33
2019-03-17T14:12:52.249Z,97324.65
2019-03-17T14:15:20.753Z,97325.69
2019-03-17T14:17:49.208Z,97323.30
2019-03-17T14:20:21.581Z,97329.95
2019-03-17T14:22:50.134Z,97324.85
2019-03-17T14:25:29.076Z,97323.25
2019-03-17T14:27:57.544Z,97321.18
2019-03-17T14:30:26.029Z,97326.78
2019-03-17T14:32:54.503Z,97323.89
2019-03-17T14:35:22.987Z,97315.70
2019-03-17T14:37:51.554Z,97311.88
2019-03-17T14:40:20.047Z,97316.59
2019-03-17T14:42:49.958Z,97313.53
2019-03-17T14:45:20.659Z,97323.39
2019-03-17T14:47:49.188Z,97313.78
2019-03-17T14:50:19.427Z,97313.73
2019-03-17T14:52:47.895Z,97311.75
2019-03-17T14:55:16.537Z,97322.59
2019-03-17T14:57:45.009Z,97321.03
2019-03-17T15:00:16.016Z,97330.60
2019-03-17T15:02:44.836Z,97335.37
2019-03-17T15:05:13.568Z,97336.64
2019-03-17T15:07:42.039Z,97337.48
2019-03-17T15:10:19.439Z,97345.80
2019-03-17T15:12:48.176Z,97344.34
2019-03-17T15:15:20.578Z,97353.95
2019-03-17T15:17:49.053Z,97361.88
2019-03-17T15:20:27.399Z,97361.08
2019-03-17T15:22:56.013Z,97366.91
2019-03-17T15:25:24.519Z,97351.41
2019-03-17T15:27:52.980Z,97343.31
2019-03-17T15:30:26.337Z,97333.73
2019-03-17T15:32:54.799Z,97329.39
2019-03-17T15:35:23.288Z,97322.05
2019-03-17T15:37:51.759Z,97313.16
2019-03-17T15:40:23.404Z,97326.03
2019-03-17T15:42:51.879Z,97313.83
2019-03-17T15:45:22.496Z,97334.09
2019-03-17T15:47:51.058Z,97335.60
2019-03-17T15:50:24.074Z,97325.34
2019-03-17T15:52:52.625Z,97324.58
2019-03-17T15:55:21.294Z,97321.21
2019-03-17T15:57:49.854Z,97327.06
2019-03-17T16:00:25.544Z,97310.33
2019-03-17T16:02:52.168Z,97312.91
2019-03-17T16:05:21.026Z,97312.88
2019-03-17T16:07:49.532Z,97315.44
2019-03-17T16:10:31.131Z,97324.03
2019-03-17T16:12:59.632Z,97356.18
2019-03-17T16:15:28.072Z,97390.08
2019-03-17T16:17:56.561Z,97422.97
2019-03-17T16:20:28.252Z,97451.54
2019-03-17T16:22:56.795Z,97432.86
2019-03-17T16:25:30.502Z,97456.72
2019-03-17T16:27:58.994Z,97492.36
2019-03-17T16:30:29.004Z,97509.58
2019-03-17T16:32:57.492Z,97521.30
2019-03-17T16:35:25.961Z,97551.20
2019-03-17T16:37:54.454Z,97573.52
2019-03-17T16:40:34.028Z,97565.42
2019-03-17T16:43:02.510Z,97574.11
2019-03-17T16:45:31.005Z,97585.42
2019-03-17T16:47:59.465Z,97615.18
2019-03-17T16:50:27.923Z,97614.89
2019-03-17T16:52:56.408Z,97637.11
2019-03-17T16:55:24.904Z,97661.78
2019-03-17T16:57:53.390Z,97679.77
2019-03-17T17:00:22.893Z,97680.80
2019-03-17T17:02:51.658Z,97684.41
2019-03-17T17:05:21.162Z,97692.57
2019-03-17T17:07:50.655Z,97709.05
2019-03-17T17:10:31.189Z,97714.59
2019-03-17T17:12:59.618Z,97727.83
2019-03-17T17:15:30.291Z,97738.98
2019-03-17T17:17:59.130Z,97747.16
2019-03-17T17:20:33.312Z,97751.10
2019-03-17T17:23:01.802Z,97759.39
2019-03-17T17:25:30.261Z,97763.00
2019-03-17T17:27:58.754Z,97780.09
2019-03-17T17:30:27.312Z,97779.66
2019-03-17T17:32:55.853Z,97776.95
2019-03-17T17:35:24.309Z,97790.59
2019-03-17T17:37:52.809Z,97781.59
2019-03-17T17:40:22.529Z,97786.38
2019-03-17T17:42:51.001Z,97797.13
2019-03-17T17:45:26.518Z,97806.27
2019-03-17T17:47:54.985Z,97804.30
2019-03-17T17:50:30.573Z,97804.23
2019-03-17T17:52:59.065Z,97804.80
2019-03-17T17:55:27.525Z,97814.81
2019-03-17T17:57:56.389Z,97807.97
2019-03-17T18:00:32.173Z,97793.70
2019-03-17T18:03:00.674Z,97792.05
2019-03-17T18:05:29.141Z,97782.53
2019-03-17T18:07:57.633Z,97789.16
2019-03-17T18:10:26.096Z,97785.25
2019-03-17T18:12:54.579Z,97795.07
2019-03-17T18:15:24.283Z,97788.70
2019-03-17T18:17:52.766Z,97801.58
2019-03-17T18:20:21.228Z,97805.79
2019-03-17T18:22:49.705Z,97806.81
2019-03-17T18:25:24.238Z,97821.14
2019-03-17T18:27:52.743Z,97825.66
2019-03-17T18:30:22.038Z,97814.91
2019-03-17T18:32:50.528Z,97822.58
2019-03-17T18:35:19.017Z,97811.59
2019-03-17T18:37:47.519Z,97816.92
2019-03-17T18:40:20.798Z,97817.55
2019-03-17T18:42:49.445Z,97829.20
2019-03-17T18:45:28.489Z,97833.99
2019-03-17T18:47:57.791Z,97853.01
2019-03-17T18:50:26.719Z,97860.33
2019-03-17T18:52:55.297Z,97875.91
2019-03-17T18:55:23.831Z,97871.04
2019-03-17T18:57:52.324Z,97864.12
2019-03-17T19:00:24.804Z,97864.30
2019-03-17T19:02:53.373Z,97866.50
2019-03-17T19:05:21.827Z,97878.09
2019-03-17T19:07:50.322Z,97875.63
2019-03-17T19:10:19.841Z,97868.41
2019-03-17T19:12:48.393Z,97862.31
2019-03-17T19:15:21.699Z,97850.89
2019-03-17T19:17:50.253Z,97844.95
2019-03-17T19:20:22.636Z,97832.64
2019-03-17T19:22:51.126Z,97862.03
2019-03-17T19:25:23.985Z,97870.81
2019-03-17T19:27:52.481Z,97862.73
2019-03-17T19:30:23.013Z,97870.28
2019-03-17T19:32:51.524Z,97868.48
2019-03-17T19:35:20.128Z,97870.17
2019-03-17T19:37:48.616Z,97875.39
2019-03-17T19:40:18.509Z,97871.83
2019-03-17T19:42:57.880Z,97853.50
2019-03-17T19:45:17.328Z,97854.91
2019-03-17T19:47:45.809Z,97851.31
2019-03-17T19:50:18.699Z,97840.01
2019-03-17T19:52:47.201Z,97828.87
2019-03-17T19:55:15.653Z,97831.23
2019-03-17T19:57:45.809Z,97828.72
2019-03-17T20:00:23.539Z,97822.84
2019-03-17T20:02:52.020Z,97828.87
2019-03-17T20:05:20.479Z,97836.45
2019-03-17T20:07:48.968Z,97830.59
2019-03-17T20:10:31.643Z,97836.97
2019-03-17T20:13:11.022Z,97842.12
2019-03-17T20:15:30.260Z,97836.61
2019-03-17T20:17:58.746Z,97838.20
2019-03-17T20:20:27.202Z,97841.48
2019-03-17T20:22:55.815Z,97858.13
2019-03-17T20:25:24.279Z,97861.02
2019-03-17T20:27:52.764Z,97868.97
2019-03-17T20:30:21.222Z,97862.87
2019-03-17T20:32:49.697Z,97871.16
2019-03-17T20:35:18.167Z,97883.63
2019-03-17T20:37:46.670Z,97890.79
2019-03-17T20:40:17.504Z,97900.19
2019-03-17T20:42:45.980Z,97914.78
2019-03-17T20:45:15.688Z,97916.38
2019-03-17T20:47:44.226Z,97910.04
2019-03-17T20:50:17.795Z,97898.88
2019-03-17T20:52:46.252Z,97901.73
2019-03-17T20:55:14.806Z,97910.53
2019-03-17T20:57:43.282Z,97913.82
2019-03-17T21:00:18.615Z,97920.41
2019-03-17T21:02:47.263Z,97929.79
2019-03-17T21:05:16.002Z,97936.17
2019-03-17T21:07:44.456Z,97943.63
2019-03-17T21:10:17.909Z,97940.81
2019-03-17T21:12:46.368Z,97947.25
2019-03-17T21:15:20.274Z,97960.60
2019-03-17T21:17:48.744Z,97965.85
2019-03-17T21:20:22.145Z,97973.50
2019-03-17T21:22:50.603Z,97981.77
2019-03-17T21:25:19.730Z,97983.66
2019-03-17T21:27:48.579Z,97971.06
2019-03-17T21:30:21.819Z,97976.48
2019-03-17T21:32:50.281Z,97978.28
2019-03-17T21:35:18.768Z,97978.89
2019-03-17T21:37:47.239Z,97983.55
2019-03-17T21:40:15.729Z,97984.23
2019-03-17T21:42:44.189Z,97981.75
2019-03-17T21:45:13.708Z,97981.36
2019-03-17T21:47:42.179Z,97980.27
2019-03-17T21:50:15.485Z,97991.12
2019-03-17T21:52:44.020Z,97990.70
2019-03-17T21:55:13.647Z,97989.45
2019-03-17T21:57:42.122Z,97992.84
2019-03-17T22:00:18.527Z,97986.81
2019-03-17T22:02:46.986Z,97999.07
2019-03-17T22:05:15.748Z,97994.27
2019-03-17T22:07:50.080Z,97991.30
2019-03-17T22:10:17.211Z,97994.11
2019-03-17T22:12:45.742Z,97992.05
2019-03-17T22:15:18.012Z,97995.29
2019-03-17T22:17:46.749Z,97997.30
2019-03-17T22:20:18.341Z,97998.41
2019-03-17T22:22:46.966Z,98012.75
2019-03-17T22:25:16.393Z,98025.83
2019-03-17T22:27:44.850Z,98016.20
2019-03-17T22:30:18.169Z,98024.95
2019-03-17T22:32:46.629Z,98025.66
2019-03-17T22:35:15.183Z,98031.84
2019-03-17T22:37:43.789Z,98032.34
2019-03-17T22:40:13.512Z,98031.69
2019-03-17T22:42:42.214Z,98040.92
2019-03-17T22:45:12.344Z,98047.94
2019-03-17T22:47:40.794Z,98048.67
2019-03-17T22:50:11.685Z,98042.06
2019-03-17T22:52:40.156Z,98037.72
2019-03-17T22:55:10.182Z,98053.47
2019-03-17T22:57:38.638Z,98050.41
2019-03-17T23:00:16.306Z,98060.35
2019-03-17T23:02:44.766Z,98057.25
2019-03-17T23:05:13.592Z,98074.73
2019-03-17T23:07:42.049Z,98075.57
2019-03-17T23:10:11.873Z,98071.30
2019-03-17T23:12:40.333Z,98069.66
2019-03-17T23:15:10.862Z,98067.60
2019-03-17T23:17:39.327Z,98070.45
2019-03-17T23:20:11.203Z,98074.73
2019-03-17T23:22:39.666Z,98071.84
2019-03-17T23:25:09.990Z,98067.93
2019-03-17T23:27:38.452Z,98070.34
2019-03-17T23:30:10.321Z,98071.91
2019-03-17T23:32:38.787Z,98081.91
2019-03-17T23:35:08.317Z,98088.73
2019-03-17T23:37:36.773Z,98090.39
2019-03-17T23:40:09.645Z,98099.82
2019-03-17T23:42:38.415Z,98104.75
2019-03-17T23:45:11.860Z,98107.44
2019-03-17T23:47:40.324Z,98117.17
2019-03-17T23:50:10.347Z,98121.92
2019-03-17T23:52:38.809Z,98111.13
2019-03-17T23:55:10.078Z,98118.94
2019-03-17T23:57:38.539Z,98113.52
